sensor_id;sensor_type;location;lat;lon;timestamp;P1;durP1;ratioP1;P2;durP2;ratioP2
7110;SDS011;3597;42.650;23.386;2023-03-01T00:00:18;0.87;;;0.87;;
7110;SDS011;3597;42.650;23.386;2023-03-01T00:02:43;0.90;;;0.90;;
7110;SDS011;3597;42.650;23.386;2023-03-01T00:05:08;1.00;;;1.00;;
7110;SDS011;3597;42.650;23.386;2023-03-01T00:07:34;0.93;;;0.93;;
7110;SDS011;3597;42.650;23.386;2023-03-01T00:09:59;0.70;;;0.70;;
7110;SDS011;3597;42.650;23.386;2023-03-01T00:12:24;0.90;;;0.90;;
7110;SDS011;3597;42.650;23.386;2023-03-01T00:14:50;0.87;;;0.87;;
7110;SDS011;3597;42.650;23.386;2023-03-01T00:17:15;0.70;;;0.70;;
7110;SDS011;3597;42.650;23.386;2023-03-01T00:19:41;0.87;;;0.87;;
7110;SDS011;3597;42.650;23.386;2023-03-01T00:22:06;0.90;;;0.90;;
7110;SDS011;3597;42.650;23.386;2023-03-01T00:24:31;1.17;;;1.17;;
7110;SDS011;3597;42.650;23.386;2023-03-01T00:26:57;0.93;;;0.93;;
7110;SDS011;3597;42.650;23.386;2023-03-01T00:29:23;0.80;;;0.80;;
7110;SDS011;3597;42.650;23.386;2023-03-01T00:31:49;1.13;;;1.13;;
7110;SDS011;3597;42.650;23.386;2023-03-01T00:34:14;0.90;;;0.90;;
7110;SDS011;3597;42.650;23.386;2023-03-01T00:36:39;0.80;;;0.80;;
7110;SDS011;3597;42.650;23.386;2023-03-01T00:39:07;0.90;;;0.90;;
7110;SDS011;3597;42.650;23.386;2023-03-01T00:41:35;0.97;;;0.97;;
7110;SDS011;3597;42.650;23.386;2023-03-01T00:44:01;0.67;;;0.67;;
7110;SDS011;3597;42.650;23.386;2023-03-01T00:46:27;0.60;;;0.60;;
7110;SDS011;3597;42.650;23.386;2023-03-01T00:48:53;0.80;;;0.80;;
7110;SDS011;3597;42.650;23.386;2023-03-01T00:53:45;0.80;;;0.80;;
7110;SDS011;3597;42.650;23.386;2023-03-01T00:56:11;1.00;;;1.00;;
7110;SDS011;3597;42.650;23.386;2023-03-01T00:58:38;0.80;;;0.80;;
7110;SDS011;3597;42.650;23.386;2023-03-01T01:01:07;0.60;;;0.60;;
7110;SDS011;3597;42.650;23.386;2023-03-01T01:03:43;0.67;;;0.67;;
7110;SDS011;3597;42.650;23.386;2023-03-01T01:06:23;0.70;;;0.70;;
7110;SDS011;3597;42.650;23.386;2023-03-01T01:08:50;0.50;;;0.50;;
7110;SDS011;3597;42.650;23.386;2023-03-01T01:11:17;0.70;;;0.70;;
7110;SDS011;3597;42.650;23.386;2023-03-01T01:13:44;0.87;;;0.63;;
7110;SDS011;3597;42.650;23.386;2023-03-01T01:16:10;0.60;;;0.60;;
7110;SDS011;3597;42.650;23.386;2023-03-01T01:18:35;0.67;;;0.67;;
7110;SDS011;3597;42.650;23.386;2023-03-01T01:21:05;0.87;;;0.87;;
7110;SDS011;3597;42.650;23.386;2023-03-01T01:23:40;0.50;;;0.50;;
7110;SDS011;3597;42.650;23.386;2023-03-01T01:26:07;0.60;;;0.60;;
7110;SDS011;3597;42.650;23.386;2023-03-01T01:28:38;0.70;;;0.70;;
7110;SDS011;3597;42.650;23.386;2023-03-01T01:31:04;1.10;;;1.10;;
7110;SDS011;3597;42.650;23.386;2023-03-01T01:33:30;0.80;;;0.80;;
7110;SDS011;3597;42.650;23.386;2023-03-01T01:35:55;0.60;;;0.60;;
7110;SDS011;3597;42.650;23.386;2023-03-01T01:38:20;0.60;;;0.60;;
7110;SDS011;3597;42.650;23.386;2023-03-01T01:40:46;0.60;;;0.60;;
7110;SDS011;3597;42.650;23.386;2023-03-01T01:43:29;0.60;;;0.60;;
7110;SDS011;3597;42.650;23.386;2023-03-01T01:46:01;0.70;;;0.70;;
7110;SDS011;3597;42.650;23.386;2023-03-01T01:48:38;0.53;;;0.53;;
7110;SDS011;3597;42.650;23.386;2023-03-01T01:51:13;0.60;;;0.60;;
7110;SDS011;3597;42.650;23.386;2023-03-01T01:53:44;0.70;;;0.70;;
7110;SDS011;3597;42.650;23.386;2023-03-01T01:56:11;0.60;;;0.60;;
7110;SDS011;3597;42.650;23.386;2023-03-01T01:58:37;0.60;;;0.60;;
7110;SDS011;3597;42.650;23.386;2023-03-01T02:01:03;0.60;;;0.60;;
7110;SDS011;3597;42.650;23.386;2023-03-01T02:03:29;0.60;;;0.60;;
7110;SDS011;3597;42.650;23.386;2023-03-01T02:08:32;0.70;;;0.70;;
7110;SDS011;3597;42.650;23.386;2023-03-01T02:11:00;0.50;;;0.50;;
7110;SDS011;3597;42.650;23.386;2023-03-01T02:13:26;0.70;;;0.70;;
7110;SDS011;3597;42.650;23.386;2023-03-01T02:15:52;0.70;;;0.70;;
7110;SDS011;3597;42.650;23.386;2023-03-01T02:18:18;0.63;;;0.63;;
7110;SDS011;3597;42.650;23.386;2023-03-01T02:20:48;0.70;;;0.70;;
7110;SDS011;3597;42.650;23.386;2023-03-01T02:23:21;0.70;;;0.70;;
7110;SDS011;3597;42.650;23.386;2023-03-01T02:31:07;0.50;;;0.50;;
7110;SDS011;3597;42.650;23.386;2023-03-01T02:33:53;0.70;;;0.70;;
7110;SDS011;3597;42.650;23.386;2023-03-01T02:36:19;0.80;;;0.80;;
7110;SDS011;3597;42.650;23.386;2023-03-01T02:38:47;0.40;;;0.40;;
7110;SDS011;3597;42.650;23.386;2023-03-01T02:41:14;0.70;;;0.70;;
7110;SDS011;3597;42.650;23.386;2023-03-01T02:43:40;0.70;;;0.70;;
7110;SDS011;3597;42.650;23.386;2023-03-01T02:46:07;0.70;;;0.70;;
7110;SDS011;3597;42.650;23.386;2023-03-01T02:48:39;0.60;;;0.60;;
7110;SDS011;3597;42.650;23.386;2023-03-01T02:56:44;0.70;;;0.70;;
7110;SDS011;3597;42.650;23.386;2023-03-01T02:59:13;0.50;;;0.50;;
7110;SDS011;3597;42.650;23.386;2023-03-01T03:01:38;0.70;;;0.70;;
7110;SDS011;3597;42.650;23.386;2023-03-01T03:04:08;0.60;;;0.60;;
7110;SDS011;3597;42.650;23.386;2023-03-01T03:06:35;0.83;;;0.83;;
7110;SDS011;3597;42.650;23.386;2023-03-01T03:09:01;0.70;;;0.70;;
7110;SDS011;3597;42.650;23.386;2023-03-01T03:11:27;0.83;;;0.83;;
7110;SDS011;3597;42.650;23.386;2023-03-01T03:13:53;0.73;;;0.73;;
7110;SDS011;3597;42.650;23.386;2023-03-01T03:16:19;0.90;;;0.90;;
7110;SDS011;3597;42.650;23.386;2023-03-01T03:18:44;1.00;;;1.00;;
7110;SDS011;3597;42.650;23.386;2023-03-01T03:21:11;0.73;;;0.73;;
7110;SDS011;3597;42.650;23.386;2023-03-01T03:23:37;0.57;;;0.57;;
7110;SDS011;3597;42.650;23.386;2023-03-01T03:26:03;0.80;;;0.80;;
7110;SDS011;3597;42.650;23.386;2023-03-01T03:28:30;0.70;;;0.70;;
7110;SDS011;3597;42.650;23.386;2023-03-01T03:31:00;0.70;;;0.70;;
7110;SDS011;3597;42.650;23.386;2023-03-01T03:33:31;0.77;;;0.77;;
7110;SDS011;3597;42.650;23.386;2023-03-01T03:35:56;0.80;;;0.80;;
7110;SDS011;3597;42.650;23.386;2023-03-01T03:38:22;0.63;;;0.63;;
7110;SDS011;3597;42.650;23.386;2023-03-01T03:40:48;0.87;;;0.87;;
7110;SDS011;3597;42.650;23.386;2023-03-01T03:43:19;1.00;;;1.00;;
7110;SDS011;3597;42.650;23.386;2023-03-01T03:45:47;0.90;;;0.90;;
7110;SDS011;3597;42.650;23.386;2023-03-01T03:48:13;0.80;;;0.80;;
7110;SDS011;3597;42.650;23.386;2023-03-01T03:50:39;0.90;;;0.90;;
7110;SDS011;3597;42.650;23.386;2023-03-01T03:53:08;0.90;;;0.90;;
7110;SDS011;3597;42.650;23.386;2023-03-01T03:55:35;0.67;;;0.67;;
7110;SDS011;3597;42.650;23.386;2023-03-01T03:58:04;0.90;;;0.90;;
7110;SDS011;3597;42.650;23.386;2023-03-01T04:00:32;0.80;;;0.80;;
7110;SDS011;3597;42.650;23.386;2023-03-01T04:03:02;0.70;;;0.70;;
7110;SDS011;3597;42.650;23.386;2023-03-01T04:05:27;0.80;;;0.80;;
7110;SDS011;3597;42.650;23.386;2023-03-01T04:07:53;1.40;;;1.40;;
7110;SDS011;3597;42.650;23.386;2023-03-01T04:10:26;0.80;;;0.80;;
7110;SDS011;3597;42.650;23.386;2023-03-01T04:12:52;0.93;;;0.93;;
7110;SDS011;3597;42.650;23.386;2023-03-01T04:15:20;0.63;;;0.63;;
7110;SDS011;3597;42.650;23.386;2023-03-01T04:17:49;0.63;;;0.63;;
7110;SDS011;3597;42.650;23.386;2023-03-01T04:20:16;0.90;;;0.90;;
7110;SDS011;3597;42.650;23.386;2023-03-01T04:22:42;0.70;;;0.70;;
7110;SDS011;3597;42.650;23.386;2023-03-01T04:25:11;0.83;;;0.83;;
7110;SDS011;3597;42.650;23.386;2023-03-01T04:27:39;0.63;;;0.63;;
7110;SDS011;3597;42.650;23.386;2023-03-01T04:30:05;0.97;;;0.97;;
7110;SDS011;3597;42.650;23.386;2023-03-01T04:32:30;0.93;;;0.93;;
7110;SDS011;3597;42.650;23.386;2023-03-01T04:34:56;0.60;;;0.60;;
7110;SDS011;3597;42.650;23.386;2023-03-01T04:37:21;0.90;;;0.90;;
7110;SDS011;3597;42.650;23.386;2023-03-01T04:39:47;0.80;;;0.80;;
7110;SDS011;3597;42.650;23.386;2023-03-01T04:42:13;0.77;;;0.77;;
7110;SDS011;3597;42.650;23.386;2023-03-01T04:44:38;1.00;;;1.00;;
7110;SDS011;3597;42.650;23.386;2023-03-01T04:47:04;0.80;;;0.80;;
7110;SDS011;3597;42.650;23.386;2023-03-01T04:49:29;0.70;;;0.70;;
7110;SDS011;3597;42.650;23.386;2023-03-01T04:51:55;0.70;;;0.70;;
7110;SDS011;3597;42.650;23.386;2023-03-01T04:54:21;0.80;;;0.80;;
7110;SDS011;3597;42.650;23.386;2023-03-01T04:56:46;0.70;;;0.70;;
7110;SDS011;3597;42.650;23.386;2023-03-01T04:59:11;2.10;;;2.10;;
7110;SDS011;3597;42.650;23.386;2023-03-01T05:01:38;0.80;;;0.80;;
7110;SDS011;3597;42.650;23.386;2023-03-01T05:04:04;0.80;;;0.80;;
7110;SDS011;3597;42.650;23.386;2023-03-01T05:06:30;0.60;;;0.60;;
7110;SDS011;3597;42.650;23.386;2023-03-01T05:08:56;0.70;;;0.70;;
7110;SDS011;3597;42.650;23.386;2023-03-01T05:11:21;0.80;;;0.80;;
7110;SDS011;3597;42.650;23.386;2023-03-01T05:13:47;0.87;;;0.87;;
7110;SDS011;3597;42.650;23.386;2023-03-01T05:16:12;0.80;;;0.80;;
7110;SDS011;3597;42.650;23.386;2023-03-01T05:18:38;0.70;;;0.70;;
7110;SDS011;3597;42.650;23.386;2023-03-01T05:21:10;0.77;;;0.77;;
7110;SDS011;3597;42.650;23.386;2023-03-01T05:23:37;0.83;;;0.83;;
7110;SDS011;3597;42.650;23.386;2023-03-01T05:26:03;1.00;;;1.00;;
7110;SDS011;3597;42.650;23.386;2023-03-01T05:28:30;0.90;;;0.90;;
7110;SDS011;3597;42.650;23.386;2023-03-01T05:30:56;1.20;;;1.20;;
7110;SDS011;3597;42.650;23.386;2023-03-01T05:33:23;1.00;;;1.00;;
7110;SDS011;3597;42.650;23.386;2023-03-01T05:35:49;1.10;;;1.10;;
7110;SDS011;3597;42.650;23.386;2023-03-01T05:38:15;1.10;;;1.10;;
7110;SDS011;3597;42.650;23.386;2023-03-01T05:40:42;0.87;;;0.87;;
7110;SDS011;3597;42.650;23.386;2023-03-01T05:43:08;1.10;;;1.10;;
7110;SDS011;3597;42.650;23.386;2023-03-01T05:45:35;0.80;;;0.80;;
7110;SDS011;3597;42.650;23.386;2023-03-01T05:48:02;2.03;;;1.30;;
7110;SDS011;3597;42.650;23.386;2023-03-01T05:50:28;1.40;;;1.40;;
7110;SDS011;3597;42.650;23.386;2023-03-01T05:53:04;1.73;;;1.73;;
7110;SDS011;3597;42.650;23.386;2023-03-01T05:55:32;0.90;;;0.90;;
7110;SDS011;3597;42.650;23.386;2023-03-01T05:57:59;0.87;;;0.87;;
7110;SDS011;3597;42.650;23.386;2023-03-01T06:00:25;0.83;;;0.83;;
7110;SDS011;3597;42.650;23.386;2023-03-01T06:02:53;1.10;;;1.10;;
7110;SDS011;3597;42.650;23.386;2023-03-01T06:05:18;0.70;;;0.70;;
7110;SDS011;3597;42.650;23.386;2023-03-01T06:07:44;0.97;;;0.97;;
7110;SDS011;3597;42.650;23.386;2023-03-01T06:10:09;1.00;;;1.00;;
7110;SDS011;3597;42.650;23.386;2023-03-01T06:12:36;3.70;;;1.03;;
7110;SDS011;3597;42.650;23.386;2023-03-01T06:15:02;0.83;;;0.83;;
7110;SDS011;3597;42.650;23.386;2023-03-01T06:17:30;1.20;;;1.20;;
7110;SDS011;3597;42.650;23.386;2023-03-01T06:19:55;1.20;;;1.20;;
7110;SDS011;3597;42.650;23.386;2023-03-01T06:22:21;1.70;;;1.70;;
7110;SDS011;3597;42.650;23.386;2023-03-01T06:24:46;1.20;;;1.20;;
7110;SDS011;3597;42.650;23.386;2023-03-01T06:27:12;0.90;;;0.90;;
7110;SDS011;3597;42.650;23.386;2023-03-01T06:29:37;1.67;;;1.67;;
7110;SDS011;3597;42.650;23.386;2023-03-01T06:32:03;1.30;;;1.30;;
7110;SDS011;3597;42.650;23.386;2023-03-01T06:34:28;1.47;;;1.47;;
7110;SDS011;3597;42.650;23.386;2023-03-01T06:36:54;1.10;;;1.10;;
7110;SDS011;3597;42.650;23.386;2023-03-01T06:39:19;1.30;;;1.30;;
7110;SDS011;3597;42.650;23.386;2023-03-01T06:41:45;1.00;;;1.00;;
7110;SDS011;3597;42.650;23.386;2023-03-01T06:44:10;1.00;;;1.00;;
7110;SDS011;3597;42.650;23.386;2023-03-01T06:46:35;2.10;;;1.37;;
7110;SDS011;3597;42.650;23.386;2023-03-01T06:49:01;1.37;;;1.37;;
7110;SDS011;3597;42.650;23.386;2023-03-01T06:51:29;1.00;;;1.00;;
7110;SDS011;3597;42.650;23.386;2023-03-01T06:53:55;0.90;;;0.90;;
7110;SDS011;3597;42.650;23.386;2023-03-01T06:56:20;0.83;;;0.83;;
7110;SDS011;3597;42.650;23.386;2023-03-01T06:58:45;0.70;;;0.70;;
7110;SDS011;3597;42.650;23.386;2023-03-01T07:01:11;1.10;;;1.10;;
7110;SDS011;3597;42.650;23.386;2023-03-01T07:03:36;0.80;;;0.80;;
7110;SDS011;3597;42.650;23.386;2023-03-01T07:06:02;1.37;;;1.37;;
7110;SDS011;3597;42.650;23.386;2023-03-01T07:08:27;0.80;;;0.80;;
7110;SDS011;3597;42.650;23.386;2023-03-01T07:10:56;0.93;;;0.93;;
7110;SDS011;3597;42.650;23.386;2023-03-01T07:13:22;1.27;;;1.27;;
7110;SDS011;3597;42.650;23.386;2023-03-01T07:15:47;1.13;;;1.13;;
7110;SDS011;3597;42.650;23.386;2023-03-01T07:18:13;1.27;;;1.27;;
7110;SDS011;3597;42.650;23.386;2023-03-01T07:20:38;0.80;;;0.80;;
7110;SDS011;3597;42.650;23.386;2023-03-01T07:23:05;0.90;;;0.90;;
7110;SDS011;3597;42.650;23.386;2023-03-01T07:25:30;1.03;;;1.03;;
7110;SDS011;3597;42.650;23.386;2023-03-01T07:27:57;1.40;;;0.80;;
7110;SDS011;3597;42.650;23.386;2023-03-01T07:30:22;0.70;;;0.70;;
7110;SDS011;3597;42.650;23.386;2023-03-01T07:32:50;0.90;;;0.90;;
7110;SDS011;3597;42.650;23.386;2023-03-01T07:35:16;0.70;;;0.70;;
7110;SDS011;3597;42.650;23.386;2023-03-01T07:37:41;0.63;;;0.63;;
7110;SDS011;3597;42.650;23.386;2023-03-01T07:40:07;1.30;;;0.77;;
7110;SDS011;3597;42.650;23.386;2023-03-01T07:42:33;0.70;;;0.70;;
7110;SDS011;3597;42.650;23.386;2023-03-01T07:44:58;0.80;;;0.80;;
7110;SDS011;3597;42.650;23.386;2023-03-01T07:47:24;0.50;;;0.50;;
7110;SDS011;3597;42.650;23.386;2023-03-01T07:49:49;0.67;;;0.67;;
7110;SDS011;3597;42.650;23.386;2023-03-01T07:52:14;0.50;;;0.50;;
7110;SDS011;3597;42.650;23.386;2023-03-01T07:54:42;0.70;;;0.70;;
7110;SDS011;3597;42.650;23.386;2023-03-01T07:57:09;0.60;;;0.60;;
7110;SDS011;3597;42.650;23.386;2023-03-01T07:59:34;0.80;;;0.80;;
7110;SDS011;3597;42.650;23.386;2023-03-01T08:01:59;0.50;;;0.50;;
7110;SDS011;3597;42.650;23.386;2023-03-01T08:04:25;1.00;;;1.00;;
7110;SDS011;3597;42.650;23.386;2023-03-01T08:06:51;0.60;;;0.60;;
7110;SDS011;3597;42.650;23.386;2023-03-01T08:09:17;0.73;;;0.73;;
7110;SDS011;3597;42.650;23.386;2023-03-01T08:11:42;1.00;;;1.00;;
7110;SDS011;3597;42.650;23.386;2023-03-01T08:14:08;0.70;;;0.70;;
7110;SDS011;3597;42.650;23.386;2023-03-01T08:16:33;0.77;;;0.77;;
7110;SDS011;3597;42.650;23.386;2023-03-01T08:19:03;0.90;;;0.90;;
7110;SDS011;3597;42.650;23.386;2023-03-01T08:21:29;0.83;;;0.83;;
7110;SDS011;3597;42.650;23.386;2023-03-01T08:23:55;0.80;;;0.80;;
7110;SDS011;3597;42.650;23.386;2023-03-01T08:26:20;0.80;;;0.80;;
7110;SDS011;3597;42.650;23.386;2023-03-01T08:28:47;0.70;;;0.70;;
7110;SDS011;3597;42.650;23.386;2023-03-01T08:31:21;0.67;;;0.67;;
7110;SDS011;3597;42.650;23.386;2023-03-01T08:33:48;0.63;;;0.63;;
7110;SDS011;3597;42.650;23.386;2023-03-01T08:36:24;0.53;;;0.53;;
7110;SDS011;3597;42.650;23.386;2023-03-01T08:38:53;0.80;;;0.80;;
7110;SDS011;3597;42.650;23.386;2023-03-01T08:41:19;1.10;;;1.10;;
7110;SDS011;3597;42.650;23.386;2023-03-01T08:43:44;0.73;;;0.73;;
7110;SDS011;3597;42.650;23.386;2023-03-01T08:46:10;0.57;;;0.57;;
7110;SDS011;3597;42.650;23.386;2023-03-01T08:48:36;0.50;;;0.50;;
7110;SDS011;3597;42.650;23.386;2023-03-01T08:51:12;0.80;;;0.80;;
7110;SDS011;3597;42.650;23.386;2023-03-01T08:53:38;0.60;;;0.60;;
7110;SDS011;3597;42.650;23.386;2023-03-01T08:56:04;0.80;;;0.80;;
7110;SDS011;3597;42.650;23.386;2023-03-01T08:58:30;0.90;;;0.90;;
7110;SDS011;3597;42.650;23.386;2023-03-01T09:00:55;1.03;;;1.03;;
7110;SDS011;3597;42.650;23.386;2023-03-01T09:03:24;0.70;;;0.70;;
7110;SDS011;3597;42.650;23.386;2023-03-01T09:05:50;0.50;;;0.50;;
7110;SDS011;3597;42.650;23.386;2023-03-01T09:08:16;0.80;;;0.80;;
7110;SDS011;3597;42.650;23.386;2023-03-01T09:10:42;0.80;;;0.80;;
7110;SDS011;3597;42.650;23.386;2023-03-01T09:13:08;0.80;;;0.80;;
7110;SDS011;3597;42.650;23.386;2023-03-01T09:15:33;0.57;;;0.57;;
7110;SDS011;3597;42.650;23.386;2023-03-01T09:17:59;0.60;;;0.60;;
7110;SDS011;3597;42.650;23.386;2023-03-01T09:20:24;0.70;;;0.70;;
7110;SDS011;3597;42.650;23.386;2023-03-01T09:22:50;0.90;;;0.90;;
7110;SDS011;3597;42.650;23.386;2023-03-01T09:25:15;0.80;;;0.80;;
7110;SDS011;3597;42.650;23.386;2023-03-01T09:27:40;0.70;;;0.70;;
7110;SDS011;3597;42.650;23.386;2023-03-01T09:30:08;0.60;;;0.60;;
7110;SDS011;3597;42.650;23.386;2023-03-01T09:32:34;1.00;;;1.00;;
7110;SDS011;3597;42.650;23.386;2023-03-01T09:35:00;0.80;;;0.80;;
7110;SDS011;3597;42.650;23.386;2023-03-01T09:37:32;0.87;;;0.87;;
7110;SDS011;3597;42.650;23.386;2023-03-01T09:39:57;0.90;;;0.90;;
7110;SDS011;3597;42.650;23.386;2023-03-01T09:42:23;0.53;;;0.53;;
7110;SDS011;3597;42.650;23.386;2023-03-01T09:44:59;1.07;;;1.07;;
7110;SDS011;3597;42.650;23.386;2023-03-01T09:47:32;0.60;;;0.60;;
7110;SDS011;3597;42.650;23.386;2023-03-01T09:50:15;1.00;;;1.00;;
7110;SDS011;3597;42.650;23.386;2023-03-01T09:55:15;0.77;;;0.77;;
7110;SDS011;3597;42.650;23.386;2023-03-01T09:57:55;0.70;;;0.70;;
7110;SDS011;3597;42.650;23.386;2023-03-01T10:00:39;0.90;;;0.90;;
7110;SDS011;3597;42.650;23.386;2023-03-01T10:03:12;0.93;;;0.93;;
7110;SDS011;3597;42.650;23.386;2023-03-01T10:06:02;1.07;;;1.07;;
7110;SDS011;3597;42.650;23.386;2023-03-01T10:08:51;0.90;;;0.90;;
7110;SDS011;3597;42.650;23.386;2023-03-01T10:19:05;1.47;;;1.47;;
7110;SDS011;3597;42.650;23.386;2023-03-01T10:21:38;0.87;;;0.87;;
7110;SDS011;3597;42.650;23.386;2023-03-01T10:24:14;0.63;;;0.63;;
7110;SDS011;3597;42.650;23.386;2023-03-01T10:26:54;0.73;;;0.73;;
7110;SDS011;3597;42.650;23.386;2023-03-01T10:29:26;0.97;;;0.97;;
7110;SDS011;3597;42.650;23.386;2023-03-01T10:31:56;1.87;;;1.87;;
7110;SDS011;3597;42.650;23.386;2023-03-01T10:34:29;1.10;;;1.10;;
7110;SDS011;3597;42.650;23.386;2023-03-01T10:36:57;1.00;;;1.00;;
7110;SDS011;3597;42.650;23.386;2023-03-01T10:39:34;0.73;;;0.73;;
7110;SDS011;3597;42.650;23.386;2023-03-01T10:42:03;1.00;;;1.00;;
7110;SDS011;3597;42.650;23.386;2023-03-01T10:45:13;0.90;;;0.90;;
7110;SDS011;3597;42.650;23.386;2023-03-01T10:47:24;1.20;;;1.20;;
7110;SDS011;3597;42.650;23.386;2023-03-01T10:52:28;1.20;;;1.20;;
7110;SDS011;3597;42.650;23.386;2023-03-01T10:55:02;1.00;;;1.00;;
7110;SDS011;3597;42.650;23.386;2023-03-01T10:57:30;0.80;;;0.80;;
7110;SDS011;3597;42.650;23.386;2023-03-01T11:00:14;3.03;;;3.03;;
7110;SDS011;3597;42.650;23.386;2023-03-01T11:02:42;1.53;;;1.53;;
7110;SDS011;3597;42.650;23.386;2023-03-01T11:07:50;2.30;;;2.30;;
7110;SDS011;3597;42.650;23.386;2023-03-01T11:10:22;1.20;;;1.20;;
7110;SDS011;3597;42.650;23.386;2023-03-01T11:12:54;1.60;;;1.60;;
7110;SDS011;3597;42.650;23.386;2023-03-01T11:15:33;1.67;;;1.67;;
7110;SDS011;3597;42.650;23.386;2023-03-01T11:17:58;3.00;;;3.00;;
7110;SDS011;3597;42.650;23.386;2023-03-01T11:20:36;1.30;;;1.30;;
7110;SDS011;3597;42.650;23.386;2023-03-01T11:23:04;2.30;;;2.30;;
7110;SDS011;3597;42.650;23.386;2023-03-01T11:25:33;2.50;;;2.50;;
7110;SDS011;3597;42.650;23.386;2023-03-01T11:28:02;2.47;;;2.47;;
7110;SDS011;3597;42.650;23.386;2023-03-01T11:30:34;3.03;;;3.03;;
7110;SDS011;3597;42.650;23.386;2023-03-01T11:36:13;2.63;;;2.63;;
7110;SDS011;3597;42.650;23.386;2023-03-01T11:38:38;1.30;;;1.30;;
7110;SDS011;3597;42.650;23.386;2023-03-01T11:41:17;2.07;;;2.07;;
7110;SDS011;3597;42.650;23.386;2023-03-01T11:51:38;2.87;;;2.87;;
7110;SDS011;3597;42.650;23.386;2023-03-01T12:03:28;2.00;;;2.00;;
7110;SDS011;3597;42.650;23.386;2023-03-01T12:14:24;2.43;;;2.43;;
7110;SDS011;3597;42.650;23.386;2023-03-01T12:38:48;1.47;;;1.47;;
7110;SDS011;3597;42.650;23.386;2023-03-01T12:41:27;1.03;;;1.03;;
7110;SDS011;3597;42.650;23.386;2023-03-01T12:46:46;1.00;;;1.00;;
7110;SDS011;3597;42.650;23.386;2023-03-01T12:49:25;1.13;;;1.13;;
7110;SDS011;3597;42.650;23.386;2023-03-01T12:51:55;1.07;;;1.00;;
7110;SDS011;3597;42.650;23.386;2023-03-01T12:54:26;1.13;;;1.13;;
7110;SDS011;3597;42.650;23.386;2023-03-01T12:57:42;1.00;;;1.00;;
7110;SDS011;3597;42.650;23.386;2023-03-01T13:02:16;1.00;;;1.00;;
7110;SDS011;3597;42.650;23.386;2023-03-01T13:10:20;1.03;;;0.90;;
7110;SDS011;3597;42.650;23.386;2023-03-01T13:12:51;0.90;;;0.90;;
7110;SDS011;3597;42.650;23.386;2023-03-01T13:17:56;1.00;;;1.00;;
7110;SDS011;3597;42.650;23.386;2023-03-01T13:20:24;1.30;;;1.30;;
7110;SDS011;3597;42.650;23.386;2023-03-01T13:23:01;1.10;;;1.10;;
7110;SDS011;3597;42.650;23.386;2023-03-01T13:25:34;0.80;;;0.80;;
7110;SDS011;3597;42.650;23.386;2023-03-01T13:28:32;0.90;;;0.90;;
7110;SDS011;3597;42.650;23.386;2023-03-01T13:31:03;1.33;;;1.33;;
7110;SDS011;3597;42.650;23.386;2023-03-01T13:35:56;0.93;;;0.93;;
7110;SDS011;3597;42.650;23.386;2023-03-01T13:41:11;0.80;;;0.80;;
7110;SDS011;3597;42.650;23.386;2023-03-01T13:43:40;2.90;;;1.80;;
7110;SDS011;3597;42.650;23.386;2023-03-01T13:46:17;1.10;;;1.10;;
7110;SDS011;3597;42.650;23.386;2023-03-01T13:48:47;1.00;;;1.00;;
7110;SDS011;3597;42.650;23.386;2023-03-01T13:51:15;0.70;;;0.70;;
7110;SDS011;3597;42.650;23.386;2023-03-01T13:53:42;0.77;;;0.77;;
7110;SDS011;3597;42.650;23.386;2023-03-01T13:56:16;0.73;;;0.73;;
7110;SDS011;3597;42.650;23.386;2023-03-01T13:58:50;0.93;;;0.93;;
7110;SDS011;3597;42.650;23.386;2023-03-01T14:01:23;1.00;;;1.00;;
7110;SDS011;3597;42.650;23.386;2023-03-01T14:03:53;1.10;;;0.97;;
7110;SDS011;3597;42.650;23.386;2023-03-01T14:06:23;0.80;;;0.80;;
7110;SDS011;3597;42.650;23.386;2023-03-01T14:08:51;0.83;;;0.83;;
7110;SDS011;3597;42.650;23.386;2023-03-01T14:19:43;0.87;;;0.87;;
7110;SDS011;3597;42.650;23.386;2023-03-01T14:24:37;0.70;;;0.70;;
7110;SDS011;3597;42.650;23.386;2023-03-01T14:27:08;1.00;;;1.00;;
7110;SDS011;3597;42.650;23.386;2023-03-01T14:29:36;0.80;;;0.80;;
7110;SDS011;3597;42.650;23.386;2023-03-01T14:32:17;0.93;;;0.93;;
7110;SDS011;3597;42.650;23.386;2023-03-01T14:34:46;0.90;;;0.90;;
7110;SDS011;3597;42.650;23.386;2023-03-01T14:37:24;0.83;;;0.83;;
7110;SDS011;3597;42.650;23.386;2023-03-01T14:39:52;0.97;;;0.97;;
7110;SDS011;3597;42.650;23.386;2023-03-01T14:42:19;0.90;;;0.90;;
7110;SDS011;3597;42.650;23.386;2023-03-01T14:44:46;0.90;;;0.90;;
7110;SDS011;3597;42.650;23.386;2023-03-01T14:47:23;1.40;;;1.30;;
7110;SDS011;3597;42.650;23.386;2023-03-01T14:49:58;1.00;;;1.00;;
7110;SDS011;3597;42.650;23.386;2023-03-01T14:52:29;1.03;;;1.03;;
7110;SDS011;3597;42.650;23.386;2023-03-01T14:54:59;1.00;;;1.00;;
7110;SDS011;3597;42.650;23.386;2023-03-01T14:57:26;1.30;;;1.30;;
7110;SDS011;3597;42.650;23.386;2023-03-01T14:59:52;1.40;;;1.40;;
7110;SDS011;3597;42.650;23.386;2023-03-01T15:02:21;2.83;;;1.20;;
7110;SDS011;3597;42.650;23.386;2023-03-01T15:04:49;1.30;;;1.30;;
7110;SDS011;3597;42.650;23.386;2023-03-01T15:07:16;1.40;;;1.40;;
7110;SDS011;3597;42.650;23.386;2023-03-01T15:09:42;1.43;;;1.43;;
7110;SDS011;3597;42.650;23.386;2023-03-01T15:14:52;2.33;;;2.33;;
7110;SDS011;3597;42.650;23.386;2023-03-01T15:19:49;1.90;;;1.90;;
7110;SDS011;3597;42.650;23.386;2023-03-01T15:22:15;1.70;;;1.70;;
7110;SDS011;3597;42.650;23.386;2023-03-01T15:24:41;2.13;;;2.13;;
7110;SDS011;3597;42.650;23.386;2023-03-01T15:27:14;1.50;;;1.50;;
7110;SDS011;3597;42.650;23.386;2023-03-01T15:29:42;1.37;;;1.37;;
7110;SDS011;3597;42.650;23.386;2023-03-01T15:32:33;1.50;;;1.50;;
7110;SDS011;3597;42.650;23.386;2023-03-01T15:35:00;2.13;;;2.13;;
7110;SDS011;3597;42.650;23.386;2023-03-01T15:37:47;1.47;;;1.47;;
7110;SDS011;3597;42.650;23.386;2023-03-01T15:40:31;1.47;;;1.47;;
7110;SDS011;3597;42.650;23.386;2023-03-01T15:43:00;1.90;;;1.90;;
7110;SDS011;3597;42.650;23.386;2023-03-01T15:45:28;2.43;;;2.43;;
7110;SDS011;3597;42.650;23.386;2023-03-01T15:47:58;1.73;;;1.73;;
7110;SDS011;3597;42.650;23.386;2023-03-01T15:50:29;1.30;;;1.30;;
7110;SDS011;3597;42.650;23.386;2023-03-01T15:52:58;1.60;;;1.60;;
7110;SDS011;3597;42.650;23.386;2023-03-01T15:55:26;1.50;;;1.50;;
7110;SDS011;3597;42.650;23.386;2023-03-01T16:00:28;1.60;;;1.60;;
7110;SDS011;3597;42.650;23.386;2023-03-01T16:02:53;1.87;;;1.87;;
7110;SDS011;3597;42.650;23.386;2023-03-01T16:05:20;1.70;;;1.70;;
7110;SDS011;3597;42.650;23.386;2023-03-01T16:07:48;1.30;;;1.30;;
7110;SDS011;3597;42.650;23.386;2023-03-01T16:10:13;1.50;;;1.50;;
7110;SDS011;3597;42.650;23.386;2023-03-01T16:12:38;1.90;;;1.90;;
7110;SDS011;3597;42.650;23.386;2023-03-01T16:15:04;1.50;;;1.50;;
7110;SDS011;3597;42.650;23.386;2023-03-01T16:17:34;1.90;;;1.90;;
7110;SDS011;3597;42.650;23.386;2023-03-01T16:19:59;1.50;;;1.50;;
7110;SDS011;3597;42.650;23.386;2023-03-01T16:22:25;1.80;;;1.80;;
7110;SDS011;3597;42.650;23.386;2023-03-01T16:24:52;2.17;;;2.17;;
7110;SDS011;3597;42.650;23.386;2023-03-01T16:27:17;1.87;;;1.87;;
7110;SDS011;3597;42.650;23.386;2023-03-01T16:29:45;1.47;;;1.47;;
7110;SDS011;3597;42.650;23.386;2023-03-01T16:32:10;2.30;;;2.30;;
7110;SDS011;3597;42.650;23.386;2023-03-01T16:34:36;1.80;;;1.80;;
7110;SDS011;3597;42.650;23.386;2023-03-01T16:37:01;2.00;;;2.00;;
7110;SDS011;3597;42.650;23.386;2023-03-01T16:39:26;1.87;;;1.87;;
7110;SDS011;3597;42.650;23.386;2023-03-01T16:41:52;1.20;;;1.20;;
7110;SDS011;3597;42.650;23.386;2023-03-01T16:44:17;1.60;;;1.60;;
7110;SDS011;3597;42.650;23.386;2023-03-01T16:46:42;1.70;;;1.70;;
7110;SDS011;3597;42.650;23.386;2023-03-01T16:49:08;1.00;;;1.00;;
7110;SDS011;3597;42.650;23.386;2023-03-01T16:51:34;1.73;;;1.73;;
7110;SDS011;3597;42.650;23.386;2023-03-01T16:54:00;1.87;;;1.87;;
7110;SDS011;3597;42.650;23.386;2023-03-01T16:56:26;1.87;;;1.87;;
7110;SDS011;3597;42.650;23.386;2023-03-01T16:58:52;1.30;;;1.30;;
7110;SDS011;3597;42.650;23.386;2023-03-01T17:01:19;2.00;;;2.00;;
7110;SDS011;3597;42.650;23.386;2023-03-01T17:03:45;1.50;;;1.40;;
7110;SDS011;3597;42.650;23.386;2023-03-01T17:06:13;1.83;;;1.83;;